sensor_id;sensor_type;location;lat;lon;timestamp;P1;durP1;ratioP1;P2;durP2;ratioP2
18544;SDS011;9402;51.460;7.276;2023-01-19T00:01:51;13.50;;;8.85;;
18544;SDS011;9402;51.460;7.276;2023-01-19T00:03:53;16.60;;;9.60;;
18544;SDS011;9402;51.460;7.276;2023-01-19T00:05:55;11.57;;;8.25;;
18544;SDS011;9402;51.460;7.276;2023-01-19T00:07:58;15.48;;;7.07;;
18544;SDS011;9402;51.460;7.276;2023-01-19T00:10:13;16.88;;;9.85;;
18544;SDS011;9402;51.460;7.276;2023-01-19T00:12:16;17.15;;;9.02;;
18544;SDS011;9402;51.460;7.276;2023-01-19T00:14:20;14.60;;;8.85;;
18544;SDS011;9402;51.460;7.276;2023-01-19T00:16:22;12.07;;;7.68;;
18544;SDS011;9402;51.460;7.276;2023-01-19T00:18:24;12.98;;;8.40;;
18544;SDS011;9402;51.460;7.276;2023-01-19T00:20:27;14.90;;;8.95;;
18544;SDS011;9402;51.460;7.276;2023-01-19T00:22:31;16.98;;;8.77;;
18544;SDS011;9402;51.460;7.276;2023-01-19T00:24:33;13.73;;;8.38;;
18544;SDS011;9402;51.460;7.276;2023-01-19T00:26:35;13.82;;;9.02;;
18544;SDS011;9402;51.460;7.276;2023-01-19T00:28:39;15.25;;;8.20;;
18544;SDS011;9402;51.460;7.276;2023-01-19T00:30:43;12.63;;;8.55;;
18544;SDS011;9402;51.460;7.276;2023-01-19T00:32:45;12.55;;;8.43;;
18544;SDS011;9402;51.460;7.276;2023-01-19T00:34:48;11.43;;;7.80;;
18544;SDS011;9402;51.460;7.276;2023-01-19T00:36:51;13.38;;;8.30;;
18544;SDS011;9402;51.460;7.276;2023-01-19T00:38:53;19.60;;;9.30;;
18544;SDS011;9402;51.460;7.276;2023-01-19T00:40:56;13.70;;;8.20;;
18544;SDS011;9402;51.460;7.276;2023-01-19T00:42:58;14.68;;;9.63;;
18544;SDS011;9402;51.460;7.276;2023-01-19T00:44:59;15.43;;;9.65;;
18544;SDS011;9402;51.460;7.276;2023-01-19T00:47:03;10.85;;;8.68;;
18544;SDS011;9402;51.460;7.276;2023-01-19T00:49:05;14.13;;;9.18;;
18544;SDS011;9402;51.460;7.276;2023-01-19T00:51:08;13.38;;;7.97;;
18544;SDS011;9402;51.460;7.276;2023-01-19T00:53:10;13.05;;;8.52;;
18544;SDS011;9402;51.460;7.276;2023-01-19T00:55:13;13.38;;;8.82;;
18544;SDS011;9402;51.460;7.276;2023-01-19T00:57:16;14.48;;;7.70;;
18544;SDS011;9402;51.460;7.276;2023-01-19T00:59:18;11.13;;;8.55;;
18544;SDS011;9402;51.460;7.276;2023-01-19T01:01:20;19.13;;;8.93;;
18544;SDS011;9402;51.460;7.276;2023-01-19T01:03:24;18.73;;;9.93;;
18544;SDS011;9402;51.460;7.276;2023-01-19T01:05:27;16.08;;;8.90;;
18544;SDS011;9402;51.460;7.276;2023-01-19T01:07:29;14.63;;;8.80;;
18544;SDS011;9402;51.460;7.276;2023-01-19T01:09:34;15.27;;;8.93;;
18544;SDS011;9402;51.460;7.276;2023-01-19T01:11:36;11.15;;;8.13;;
18544;SDS011;9402;51.460;7.276;2023-01-19T01:13:39;12.98;;;8.48;;
18544;SDS011;9402;51.460;7.276;2023-01-19T01:15:41;11.23;;;8.73;;
18544;SDS011;9402;51.460;7.276;2023-01-19T01:17:44;15.75;;;8.20;;
18544;SDS011;9402;51.460;7.276;2023-01-19T01:19:48;13.60;;;8.80;;
18544;SDS011;9402;51.460;7.276;2023-01-19T01:21:51;15.02;;;9.10;;
18544;SDS011;9402;51.460;7.276;2023-01-19T01:23:54;10.48;;;7.85;;
18544;SDS011;9402;51.460;7.276;2023-01-19T01:25:56;12.65;;;7.88;;
18544;SDS011;9402;51.460;7.276;2023-01-19T01:27:59;17.70;;;8.50;;
18544;SDS011;9402;51.460;7.276;2023-01-19T01:30:02;13.52;;;8.18;;
18544;SDS011;9402;51.460;7.276;2023-01-19T01:32:05;13.77;;;8.23;;
18544;SDS011;9402;51.460;7.276;2023-01-19T01:34:07;12.75;;;8.82;;
18544;SDS011;9402;51.460;7.276;2023-01-19T01:36:11;13.25;;;8.65;;
18544;SDS011;9402;51.460;7.276;2023-01-19T01:38:13;12.00;;;8.18;;
18544;SDS011;9402;51.460;7.276;2023-01-19T01:40:16;16.75;;;8.15;;
18544;SDS011;9402;51.460;7.276;2023-01-19T01:42:19;11.90;;;8.13;;
18544;SDS011;9402;51.460;7.276;2023-01-19T01:46:51;11.80;;;8.45;;
18544;SDS011;9402;51.460;7.276;2023-01-19T01:48:55;11.45;;;7.40;;
18544;SDS011;9402;51.460;7.276;2023-01-19T01:51:02;15.50;;;8.35;;
18544;SDS011;9402;51.460;7.276;2023-01-19T01:53:25;16.73;;;8.60;;
18544;SDS011;9402;51.460;7.276;2023-01-19T01:55:29;13.20;;;8.90;;
18544;SDS011;9402;51.460;7.276;2023-01-19T01:57:33;10.65;;;7.90;;
18544;SDS011;9402;51.460;7.276;2023-01-19T01:59:38;13.05;;;8.43;;
18544;SDS011;9402;51.460;7.276;2023-01-19T02:01:41;19.38;;;8.05;;
18544;SDS011;9402;51.460;7.276;2023-01-19T02:04:01;13.88;;;7.60;;
18544;SDS011;9402;51.460;7.276;2023-01-19T02:06:03;11.25;;;7.57;;
18544;SDS011;9402;51.460;7.276;2023-01-19T02:08:07;14.35;;;9.02;;
18544;SDS011;9402;51.460;7.276;2023-01-19T02:10:31;16.00;;;8.82;;
18544;SDS011;9402;51.460;7.276;2023-01-19T02:12:51;14.85;;;8.93;;
18544;SDS011;9402;51.460;7.276;2023-01-19T02:15:14;16.08;;;8.57;;
18544;SDS011;9402;51.460;7.276;2023-01-19T02:17:17;12.95;;;8.23;;
18544;SDS011;9402;51.460;7.276;2023-01-19T02:19:20;14.23;;;7.75;;
18544;SDS011;9402;51.460;7.276;2023-01-19T02:21:26;14.02;;;8.43;;
18544;SDS011;9402;51.460;7.276;2023-01-19T02:23:39;12.90;;;8.90;;
18544;SDS011;9402;51.460;7.276;2023-01-19T02:25:44;13.75;;;8.52;;
18544;SDS011;9402;51.460;7.276;2023-01-19T02:27:47;15.85;;;8.93;;
18544;SDS011;9402;51.460;7.276;2023-01-19T02:29:50;13.48;;;7.93;;
18544;SDS011;9402;51.460;7.276;2023-01-19T02:31:52;13.45;;;8.65;;
18544;SDS011;9402;51.460;7.276;2023-01-19T02:33:56;13.60;;;8.02;;
18544;SDS011;9402;51.460;7.276;2023-01-19T02:35:59;16.65;;;8.90;;
18544;SDS011;9402;51.460;7.276;2023-01-19T02:38:01;21.85;;;9.05;;
18544;SDS011;9402;51.460;7.276;2023-01-19T02:40:06;12.85;;;8.57;;
18544;SDS011;9402;51.460;7.276;2023-01-19T02:42:12;21.30;;;8.68;;
18544;SDS011;9402;51.460;7.276;2023-01-19T02:44:18;11.48;;;8.15;;
18544;SDS011;9402;51.460;7.276;2023-01-19T02:46:21;14.48;;;9.20;;
18544;SDS011;9402;51.460;7.276;2023-01-19T02:48:26;11.85;;;8.45;;
18544;SDS011;9402;51.460;7.276;2023-01-19T02:50:38;18.45;;;9.15;;
18544;SDS011;9402;51.460;7.276;2023-01-19T02:52:42;11.27;;;7.55;;
18544;SDS011;9402;51.460;7.276;2023-01-19T02:54:46;13.82;;;9.10;;
18544;SDS011;9402;51.460;7.276;2023-01-19T02:56:59;12.85;;;8.25;;
18544;SDS011;9402;51.460;7.276;2023-01-19T02:59:24;11.38;;;7.85;;
18544;SDS011;9402;51.460;7.276;2023-01-19T03:01:34;15.88;;;8.50;;
18544;SDS011;9402;51.460;7.276;2023-01-19T03:03:45;13.80;;;7.95;;
18544;SDS011;9402;51.460;7.276;2023-01-19T03:05:54;9.85;;;6.95;;
18544;SDS011;9402;51.460;7.276;2023-01-19T03:08:05;12.32;;;7.95;;
18544;SDS011;9402;51.460;7.276;2023-01-19T03:10:12;19.38;;;7.32;;
18544;SDS011;9402;51.460;7.276;2023-01-19T03:12:22;12.15;;;7.35;;
18544;SDS011;9402;51.460;7.276;2023-01-19T03:14:27;11.82;;;8.05;;
18544;SDS011;9402;51.460;7.276;2023-01-19T03:16:33;15.50;;;8.13;;
18544;SDS011;9402;51.460;7.276;2023-01-19T03:18:38;13.80;;;7.05;;
18544;SDS011;9402;51.460;7.276;2023-01-19T03:20:43;17.13;;;7.95;;
18544;SDS011;9402;51.460;7.276;2023-01-19T03:22:46;15.75;;;8.15;;
18544;SDS011;9402;51.460;7.276;2023-01-19T03:24:51;12.02;;;7.47;;
18544;SDS011;9402;51.460;7.276;2023-01-19T03:26:56;16.05;;;7.50;;
18544;SDS011;9402;51.460;7.276;2023-01-19T03:29:02;9.73;;;7.03;;
18544;SDS011;9402;51.460;7.276;2023-01-19T03:31:07;17.55;;;7.38;;
18544;SDS011;9402;51.460;7.276;2023-01-19T03:33:13;17.00;;;7.68;;
18544;SDS011;9402;51.460;7.276;2023-01-19T03:35:18;14.70;;;7.72;;
18544;SDS011;9402;51.460;7.276;2023-01-19T03:37:22;13.85;;;7.10;;
18544;SDS011;9402;51.460;7.276;2023-01-19T03:39:25;15.48;;;6.97;;
18544;SDS011;9402;51.460;7.276;2023-01-19T03:41:28;13.90;;;7.00;;
18544;SDS011;9402;51.460;7.276;2023-01-19T03:43:33;13.68;;;6.70;;
18544;SDS011;9402;51.460;7.276;2023-01-19T03:45:38;14.43;;;7.70;;
18544;SDS011;9402;51.460;7.276;2023-01-19T03:47:40;9.70;;;6.97;;
18544;SDS011;9402;51.460;7.276;2023-01-19T03:49:44;20.02;;;7.22;;
18544;SDS011;9402;51.460;7.276;2023-01-19T03:51:47;14.80;;;7.13;;
18544;SDS011;9402;51.460;7.276;2023-01-19T03:53:49;15.95;;;8.40;;
18544;SDS011;9402;51.460;7.276;2023-01-19T03:55:51;14.32;;;7.07;;
18544;SDS011;9402;51.460;7.276;2023-01-19T03:57:54;12.00;;;6.82;;
18544;SDS011;9402;51.460;7.276;2023-01-19T03:59:56;13.60;;;6.88;;
18544;SDS011;9402;51.460;7.276;2023-01-19T04:02:00;12.73;;;6.25;;
18544;SDS011;9402;51.460;7.276;2023-01-19T04:04:02;12.50;;;7.35;;
18544;SDS011;9402;51.460;7.276;2023-01-19T04:06:05;12.52;;;6.60;;
18544;SDS011;9402;51.460;7.276;2023-01-19T04:08:07;16.83;;;6.97;;
18544;SDS011;9402;51.460;7.276;2023-01-19T04:10:10;16.02;;;7.50;;
18544;SDS011;9402;51.460;7.276;2023-01-19T04:12:12;9.90;;;6.68;;
18544;SDS011;9402;51.460;7.276;2023-01-19T04:14:15;12.27;;;6.65;;
18544;SDS011;9402;51.460;7.276;2023-01-19T04:16:17;12.70;;;6.90;;
18544;SDS011;9402;51.460;7.276;2023-01-19T04:18:21;13.32;;;7.30;;
18544;SDS011;9402;51.460;7.276;2023-01-19T04:20:24;13.13;;;7.55;;
18544;SDS011;9402;51.460;7.276;2023-01-19T04:22:27;11.50;;;7.70;;
18544;SDS011;9402;51.460;7.276;2023-01-19T04:24:29;11.13;;;5.97;;
18544;SDS011;9402;51.460;7.276;2023-01-19T04:26:32;15.32;;;8.25;;
18544;SDS011;9402;51.460;7.276;2023-01-19T04:28:34;14.60;;;7.05;;
18544;SDS011;9402;51.460;7.276;2023-01-19T04:30:37;11.20;;;7.28;;
18544;SDS011;9402;51.460;7.276;2023-01-19T04:32:39;11.13;;;7.28;;
18544;SDS011;9402;51.460;7.276;2023-01-19T04:34:43;14.13;;;7.65;;
18544;SDS011;9402;51.460;7.276;2023-01-19T04:36:45;13.45;;;7.20;;
18544;SDS011;9402;51.460;7.276;2023-01-19T04:38:50;12.05;;;7.68;;
18544;SDS011;9402;51.460;7.276;2023-01-19T04:40:52;15.07;;;8.25;;
18544;SDS011;9402;51.460;7.276;2023-01-19T04:42:55;14.05;;;8.35;;
18544;SDS011;9402;51.460;7.276;2023-01-19T04:44:57;12.35;;;8.30;;
18544;SDS011;9402;51.460;7.276;2023-01-19T04:46:59;11.27;;;7.90;;
18544;SDS011;9402;51.460;7.276;2023-01-19T04:49:02;15.70;;;9.10;;
18544;SDS011;9402;51.460;7.276;2023-01-19T04:51:06;15.32;;;9.88;;
18544;SDS011;9402;51.460;7.276;2023-01-19T04:53:09;13.75;;;9.02;;
18544;SDS011;9402;51.460;7.276;2023-01-19T04:55:12;15.70;;;10.40;;
18544;SDS011;9402;51.460;7.276;2023-01-19T04:57:15;15.27;;;9.90;;
18544;SDS011;9402;51.460;7.276;2023-01-19T04:59:17;14.93;;;9.38;;
18544;SDS011;9402;51.460;7.276;2023-01-19T05:01:20;15.15;;;10.10;;
18544;SDS011;9402;51.460;7.276;2023-01-19T05:03:23;17.15;;;9.48;;
18544;SDS011;9402;51.460;7.276;2023-01-19T05:05:26;14.10;;;9.00;;
18544;SDS011;9402;51.460;7.276;2023-01-19T05:07:29;13.75;;;9.57;;
18544;SDS011;9402;51.460;7.276;2023-01-19T05:09:32;12.98;;;9.05;;
18544;SDS011;9402;51.460;7.276;2023-01-19T05:11:34;15.75;;;9.93;;
18544;SDS011;9402;51.460;7.276;2023-01-19T05:13:36;13.25;;;9.63;;
18544;SDS011;9402;51.460;7.276;2023-01-19T05:15:39;15.15;;;9.45;;
18544;SDS011;9402;51.460;7.276;2023-01-19T05:17:41;17.70;;;10.80;;
18544;SDS011;9402;51.460;7.276;2023-01-19T05:19:43;15.35;;;8.85;;
18544;SDS011;9402;51.460;7.276;2023-01-19T05:21:46;14.35;;;9.27;;
18544;SDS011;9402;51.460;7.276;2023-01-19T05:23:50;12.07;;;8.38;;
18544;SDS011;9402;51.460;7.276;2023-01-19T05:25:52;12.30;;;8.32;;
18544;SDS011;9402;51.460;7.276;2023-01-19T05:27:55;14.27;;;8.85;;
18544;SDS011;9402;51.460;7.276;2023-01-19T05:29:58;14.80;;;8.75;;
18544;SDS011;9402;51.460;7.276;2023-01-19T05:32:00;16.52;;;10.10;;
18544;SDS011;9402;51.460;7.276;2023-01-19T05:34:02;12.32;;;8.95;;
18544;SDS011;9402;51.460;7.276;2023-01-19T05:36:05;13.88;;;9.73;;
18544;SDS011;9402;51.460;7.276;2023-01-19T05:38:08;18.52;;;9.32;;
18544;SDS011;9402;51.460;7.276;2023-01-19T05:40:11;10.02;;;8.10;;
18544;SDS011;9402;51.460;7.276;2023-01-19T05:42:14;12.30;;;9.52;;
18544;SDS011;9402;51.460;7.276;2023-01-19T05:44:16;12.05;;;9.02;;
18544;SDS011;9402;51.460;7.276;2023-01-19T05:46:18;12.13;;;8.68;;
18544;SDS011;9402;51.460;7.276;2023-01-19T05:48:21;14.77;;;9.38;;
18544;SDS011;9402;51.460;7.276;2023-01-19T05:50:23;13.77;;;8.77;;
18544;SDS011;9402;51.460;7.276;2023-01-19T05:52:25;12.88;;;8.15;;
18544;SDS011;9402;51.460;7.276;2023-01-19T05:54:28;12.98;;;8.40;;
18544;SDS011;9402;51.460;7.276;2023-01-19T05:56:31;13.10;;;7.80;;
18544;SDS011;9402;51.460;7.276;2023-01-19T05:58:34;10.02;;;7.38;;
18544;SDS011;9402;51.460;7.276;2023-01-19T06:00:38;11.63;;;7.88;;
18544;SDS011;9402;51.460;7.276;2023-01-19T06:02:40;12.13;;;8.70;;
18544;SDS011;9402;51.460;7.276;2023-01-19T06:04:43;11.05;;;8.15;;
18544;SDS011;9402;51.460;7.276;2023-01-19T06:06:45;12.65;;;8.27;;
18544;SDS011;9402;51.460;7.276;2023-01-19T06:08:48;11.65;;;7.57;;
18544;SDS011;9402;51.460;7.276;2023-01-19T06:10:50;10.38;;;6.68;;
18544;SDS011;9402;51.460;7.276;2023-01-19T06:12:54;9.80;;;6.60;;
18544;SDS011;9402;51.460;7.276;2023-01-19T06:14:56;10.05;;;7.25;;
18544;SDS011;9402;51.460;7.276;2023-01-19T06:16:59;9.27;;;6.38;;
18544;SDS011;9402;51.460;7.276;2023-01-19T06:19:01;11.10;;;7.18;;
18544;SDS011;9402;51.460;7.276;2023-01-19T06:21:04;10.00;;;6.60;;
18544;SDS011;9402;51.460;7.276;2023-01-19T06:23:07;8.52;;;5.90;;
18544;SDS011;9402;51.460;7.276;2023-01-19T06:25:09;8.30;;;6.25;;
18544;SDS011;9402;51.460;7.276;2023-01-19T06:27:12;7.80;;;5.90;;
18544;SDS011;9402;51.460;7.276;2023-01-19T06:29:15;9.00;;;5.50;;
18544;SDS011;9402;51.460;7.276;2023-01-19T06:31:18;8.20;;;5.47;;
18544;SDS011;9402;51.460;7.276;2023-01-19T06:33:20;5.88;;;4.57;;
18544;SDS011;9402;51.460;7.276;2023-01-19T06:35:23;7.00;;;5.60;;
18544;SDS011;9402;51.460;7.276;2023-01-19T06:37:26;7.57;;;5.32;;
18544;SDS011;9402;51.460;7.276;2023-01-19T06:39:29;8.15;;;5.50;;
18544;SDS011;9402;51.460;7.276;2023-01-19T06:41:32;8.93;;;5.90;;
18544;SDS011;9402;51.460;7.276;2023-01-19T06:43:35;6.30;;;5.35;;
18544;SDS011;9402;51.460;7.276;2023-01-19T06:45:38;6.50;;;4.90;;
18544;SDS011;9402;51.460;7.276;2023-01-19T06:47:41;9.05;;;5.47;;
18544;SDS011;9402;51.460;7.276;2023-01-19T06:49:43;7.85;;;5.65;;
18544;SDS011;9402;51.460;7.276;2023-01-19T06:51:45;7.15;;;5.30;;
18544;SDS011;9402;51.460;7.276;2023-01-19T06:53:48;6.55;;;5.20;;
18544;SDS011;9402;51.460;7.276;2023-01-19T06:55:50;6.70;;;4.93;;
18544;SDS011;9402;51.460;7.276;2023-01-19T06:57:55;7.68;;;4.90;;
18544;SDS011;9402;51.460;7.276;2023-01-19T06:59:58;6.70;;;5.03;;
18544;SDS011;9402;51.460;7.276;2023-01-19T07:02:02;6.25;;;4.70;;
18544;SDS011;9402;51.460;7.276;2023-01-19T07:04:04;9.02;;;5.47;;
18544;SDS011;9402;51.460;7.276;2023-01-19T07:06:07;5.95;;;5.05;;
18544;SDS011;9402;51.460;7.276;2023-01-19T07:08:09;6.15;;;4.43;;
18544;SDS011;9402;51.460;7.276;2023-01-19T07:10:12;6.57;;;4.88;;
18544;SDS011;9402;51.460;7.276;2023-01-19T07:12:15;6.43;;;4.30;;
18544;SDS011;9402;51.460;7.276;2023-01-19T07:14:17;6.70;;;4.75;;
18544;SDS011;9402;51.460;7.276;2023-01-19T07:16:20;7.80;;;4.90;;
18544;SDS011;9402;51.460;7.276;2023-01-19T07:18:25;6.60;;;4.65;;
18544;SDS011;9402;51.460;7.276;2023-01-19T07:20:27;5.85;;;4.43;;
18544;SDS011;9402;51.460;7.276;2023-01-19T07:22:29;5.57;;;4.50;;
18544;SDS011;9402;51.460;7.276;2023-01-19T07:24:32;5.95;;;4.13;;
18544;SDS011;9402;51.460;7.276;2023-01-19T07:26:34;6.05;;;4.20;;
18544;SDS011;9402;51.460;7.276;2023-01-19T07:28:37;4.70;;;3.90;;
18544;SDS011;9402;51.460;7.276;2023-01-19T07:30:40;6.60;;;4.20;;
18544;SDS011;9402;51.460;7.276;2023-01-19T07:32:45;6.82;;;4.22;;
18544;SDS011;9402;51.460;7.276;2023-01-19T07:34:48;6.75;;;4.65;;
18544;SDS011;9402;51.460;7.276;2023-01-19T07:36:51;7.05;;;4.63;;
18544;SDS011;9402;51.460;7.276;2023-01-19T07:38:53;6.00;;;4.28;;
18544;SDS011;9402;51.460;7.276;2023-01-19T07:40:58;6.72;;;4.35;;
18544;SDS011;9402;51.460;7.276;2023-01-19T07:43:01;7.68;;;5.80;;
18544;SDS011;9402;51.460;7.276;2023-01-19T07:45:03;11.43;;;6.18;;
18544;SDS011;9402;51.460;7.276;2023-01-19T07:47:06;8.18;;;5.82;;
18544;SDS011;9402;51.460;7.276;2023-01-19T07:49:11;16.98;;;6.38;;
18544;SDS011;9402;51.460;7.276;2023-01-19T07:51:15;9.05;;;6.43;;
18544;SDS011;9402;51.460;7.276;2023-01-19T07:53:17;10.35;;;6.93;;
18544;SDS011;9402;51.460;7.276;2023-01-19T07:55:20;8.38;;;6.35;;
18544;SDS011;9402;51.460;7.276;2023-01-19T07:57:24;16.02;;;8.18;;
18544;SDS011;9402;51.460;7.276;2023-01-19T07:59:26;13.85;;;7.20;;
18544;SDS011;9402;51.460;7.276;2023-01-19T08:01:31;10.07;;;7.85;;
18544;SDS011;9402;51.460;7.276;2023-01-19T08:03:33;17.13;;;8.35;;
18544;SDS011;9402;51.460;7.276;2023-01-19T08:05:35;13.73;;;8.43;;
18544;SDS011;9402;51.460;7.276;2023-01-19T08:07:40;15.25;;;8.02;;
18544;SDS011;9402;51.460;7.276;2023-01-19T08:09:42;21.10;;;9.00;;
18544;SDS011;9402;51.460;7.276;2023-01-19T08:11:44;14.38;;;8.93;;
18544;SDS011;9402;51.460;7.276;2023-01-19T08:13:47;19.90;;;9.75;;
18544;SDS011;9402;51.460;7.276;2023-01-19T08:15:49;15.82;;;9.18;;
18544;SDS011;9402;51.460;7.276;2023-01-19T08:17:56;16.65;;;10.02;;
18544;SDS011;9402;51.460;7.276;2023-01-19T08:19:59;24.80;;;10.45;;
18544;SDS011;9402;51.460;7.276;2023-01-19T08:22:01;18.83;;;9.90;;
18544;SDS011;9402;51.460;7.276;2023-01-19T08:24:10;14.23;;;9.32;;
18544;SDS011;9402;51.460;7.276;2023-01-19T08:26:18;16.52;;;9.45;;
18544;SDS011;9402;51.460;7.276;2023-01-19T08:28:23;17.17;;;9.35;;
18544;SDS011;9402;51.460;7.276;2023-01-19T08:30:25;18.60;;;11.45;;
18544;SDS011;9402;51.460;7.276;2023-01-19T08:32:29;15.88;;;9.50;;
18544;SDS011;9402;51.460;7.276;2023-01-19T08:34:31;15.20;;;9.57;;
18544;SDS011;9402;51.460;7.276;2023-01-19T08:36:33;16.80;;;10.00;;
18544;SDS011;9402;51.460;7.276;2023-01-19T08:38:36;12.60;;;8.90;;
18544;SDS011;9402;51.460;7.276;2023-01-19T08:40:43;18.15;;;10.02;;
18544;SDS011;9402;51.460;7.276;2023-01-19T08:42:46;13.25;;;9.18;;
18544;SDS011;9402;51.460;7.276;2023-01-19T08:44:48;20.15;;;10.70;;
18544;SDS011;9402;51.460;7.276;2023-01-19T08:46:50;18.98;;;10.38;;
18544;SDS011;9402;51.460;7.276;2023-01-19T08:48:53;15.57;;;9.93;;
18544;SDS011;9402;51.460;7.276;2023-01-19T08:50:55;16.83;;;10.18;;
18544;SDS011;9402;51.460;7.276;2023-01-19T08:52:59;16.15;;;11.23;;
18544;SDS011;9402;51.460;7.276;2023-01-19T08:55:04;17.90;;;11.65;;
18544;SDS011;9402;51.460;7.276;2023-01-19T08:57:08;20.35;;;11.90;;
18544;SDS011;9402;51.460;7.276;2023-01-19T08:59:11;18.27;;;11.25;;
18544;SDS011;9402;51.460;7.276;2023-01-19T09:01:13;16.67;;;9.70;;
18544;SDS011;9402;51.460;7.276;2023-01-19T09:03:15;18.20;;;12.77;;
18544;SDS011;9402;51.460;7.276;2023-01-19T09:05:18;17.20;;;11.65;;
18544;SDS011;9402;51.460;7.276;2023-01-19T09:07:21;20.83;;;12.20;;
18544;SDS011;9402;51.460;7.276;2023-01-19T09:09:23;16.20;;;11.55;;
18544;SDS011;9402;51.460;7.276;2023-01-19T09:11:25;20.10;;;13.55;;
18544;SDS011;9402;51.460;7.276;2023-01-19T09:13:29;22.30;;;13.35;;
18544;SDS011;9402;51.460;7.276;2023-01-19T09:15:32;22.02;;;13.23;;
18544;SDS011;9402;51.460;7.276;2023-01-19T09:17:36;19.35;;;13.55;;
18544;SDS011;9402;51.460;7.276;2023-01-19T09:19:39;18.35;;;12.65;;
18544;SDS011;9402;51.460;7.276;2023-01-19T09:21:41;24.13;;;15.05;;
18544;SDS011;9402;51.460;7.276;2023-01-19T09:23:43;22.63;;;13.30;;
18544;SDS011;9402;51.460;7.276;2023-01-19T09:25:46;23.73;;;15.25;;
18544;SDS011;9402;51.460;7.276;2023-01-19T09:27:48;24.15;;;17.45;;
18544;SDS011;9402;51.460;7.276;2023-01-19T09:29:52;25.52;;;16.33;;
18544;SDS011;9402;51.460;7.276;2023-01-19T09:31:55;25.25;;;18.02;;
18544;SDS011;9402;51.460;7.276;2023-01-19T09:33:57;38.50;;;16.10;;
18544;SDS011;9402;51.460;7.276;2023-01-19T09:36:00;28.60;;;17.85;;
18544;SDS011;9402;51.460;7.276;2023-01-19T09:38:02;25.38;;;17.35;;
18544;SDS011;9402;51.460;7.276;2023-01-19T09:40:07;27.85;;;16.65;;
18544;SDS011;9402;51.460;7.276;2023-01-19T09:42:13;29.42;;;18.17;;
18544;SDS011;9402;51.460;7.276;2023-01-19T09:44:22;25.25;;;16.70;;
18544;SDS011;9402;51.460;7.276;2023-01-19T09:46:32;24.98;;;17.00;;
18544;SDS011;9402;51.460;7.276;2023-01-19T09:48:41;28.70;;;18.17;;
18544;SDS011;9402;51.460;7.276;2023-01-19T09:50:45;25.08;;;16.60;;
18544;SDS011;9402;51.460;7.276;2023-01-19T09:52:52;25.45;;;16.63;;
18544;SDS011;9402;51.460;7.276;2023-01-19T09:55:00;23.50;;;16.85;;
18544;SDS011;9402;51.460;7.276;2023-01-19T09:57:02;25.48;;;16.95;;
18544;SDS011;9402;51.460;7.276;2023-01-19T09:59:19;25.08;;;17.48;;
18544;SDS011;9402;51.460;7.276;2023-01-19T10:01:35;29.45;;;18.95;;
18544;SDS011;9402;51.460;7.276;2023-01-19T10:03:41;29.33;;;17.88;;
18544;SDS011;9402;51.460;7.276;2023-01-19T10:05:44;29.75;;;18.38;;
18544;SDS011;9402;51.460;7.276;2023-01-19T10:07:54;27.58;;;18.35;;
18544;SDS011;9402;51.460;7.276;2023-01-19T10:10:05;27.08;;;18.77;;
18544;SDS011;9402;51.460;7.276;2023-01-19T10:12:14;27.13;;;18.05;;
18544;SDS011;9402;51.460;7.276;2023-01-19T10:14:24;24.17;;;16.52;;
18544;SDS011;9402;51.460;7.276;2023-01-19T10:16:29;32.92;;;18.83;;
18544;SDS011;9402;51.460;7.276;2023-01-19T10:18:42;27.98;;;17.83;;
18544;SDS011;9402;51.460;7.276;2023-01-19T10:20:47;25.95;;;18.17;;
18544;SDS011;9402;51.460;7.276;2023-01-19T10:22:51;30.83;;;18.23;;
18544;SDS011;9402;51.460;7.276;2023-01-19T10:24:54;31.60;;;18.38;;
18544;SDS011;9402;51.460;7.276;2023-01-19T10:26:58;28.33;;;18.45;;
18544;SDS011;9402;51.460;7.276;2023-01-19T10:29:02;26.55;;;18.13;;
18544;SDS011;9402;51.460;7.276;2023-01-19T10:31:07;28.77;;;19.13;;
18544;SDS011;9402;51.460;7.276;2023-01-19T10:33:11;28.05;;;18.20;;
18544;SDS011;9402;51.460;7.276;2023-01-19T10:35:15;25.58;;;17.88;;
18544;SDS011;9402;51.460;7.276;2023-01-19T10:37:24;32.83;;;19.67;;
18544;SDS011;9402;51.460;7.276;2023-01-19T10:39:29;33.33;;;20.35;;
18544;SDS011;9402;51.460;7.276;2023-01-19T10:41:35;31.63;;;21.33;;
18544;SDS011;9402;51.460;7.276;2023-01-19T10:43:41;32.03;;;22.60;;
18544;SDS011;9402;51.460;7.276;2023-01-19T10:45:44;45.03;;;22.95;;
18544;SDS011;9402;51.460;7.276;2023-01-19T10:47:51;36.70;;;22.17;;
18544;SDS011;9402;51.460;7.276;2023-01-19T10:49:55;36.70;;;22.75;;
18544;SDS011;9402;51.460;7.276;2023-01-19T10:51:58;40.63;;;25.27;;
18544;SDS011;9402;51.460;7.276;2023-01-19T10:54:01;36.00;;;23.13;;
18544;SDS011;9402;51.460;7.276;2023-01-19T10:56:11;32.75;;;22.48;;
18544;SDS011;9402;51.460;7.276;2023-01-19T10:58:26;36.38;;;24.63;;
18544;SDS011;9402;51.460;7.276;2023-01-19T11:00:32;37.58;;;23.17;;
18544;SDS011;9402;51.460;7.276;2023-01-19T11:02:36;38.85;;;22.80;;
18544;SDS011;9402;51.460;7.276;2023-01-19T11:04:51;38.05;;;23.23;;
18544;SDS011;9402;51.460;7.276;2023-01-19T11:06:59;38.00;;;22.40;;
18544;SDS011;9402;51.460;7.276;2023-01-19T11:09:15;44.20;;;23.70;;
18544;SDS011;9402;51.460;7.276;2023-01-19T11:11:19;53.30;;;26.25;;
18544;SDS011;9402;51.460;7.276;2023-01-19T11:13:22;35.55;;;23.02;;
18544;SDS011;9402;51.460;7.276;2023-01-19T11:15:27;41.13;;;24.77;;
18544;SDS011;9402;51.460;7.276;2023-01-19T11:17:33;38.45;;;22.67;;
18544;SDS011;9402;51.460;7.276;2023-01-19T11:19:35;39.38;;;23.13;;
18544;SDS011;9402;51.460;7.276;2023-01-19T11:21:37;43.65;;;24.73;;
18544;SDS011;9402;51.460;7.276;2023-01-19T11:23:44;41.83;;;24.48;;
18544;SDS011;9402;51.460;7.276;2023-01-19T11:25:50;46.10;;;24.77;;
18544;SDS011;9402;51.460;7.276;2023-01-19T11:27:53;42.30;;;24.70;;
18544;SDS011;9402;51.460;7.276;2023-01-19T11:30:03;46.85;;;24.33;;
18544;SDS011;9402;51.460;7.276;2023-01-19T11:32:10;48.03;;;26.75;;
18544;SDS011;9402;51.460;7.276;2023-01-19T11:34:22;49.75;;;26.83;;
18544;SDS011;9402;51.460;7.276;2023-01-19T11:36:27;42.15;;;24.75;;
18544;SDS011;9402;51.460;7.276;2023-01-19T11:38:31;47.05;;;26.58;;
18544;SDS011;9402;51.460;7.276;2023-01-19T11:40:45;45.75;;;28.05;;
18544;SDS011;9402;51.460;7.276;2023-01-19T11:42:53;51.60;;;27.60;;
18544;SDS011;9402;51.460;7.276;2023-01-19T11:44:57;42.03;;;26.27;;
18544;SDS011;9402;51.460;7.276;2023-01-19T11:47:05;55.75;;;29.40;;
18544;SDS011;9402;51.460;7.276;2023-01-19T11:49:14;54.70;;;28.63;;
18544;SDS011;9402;51.460;7.276;2023-01-19T11:51:20;44.42;;;26.08;;
18544;SDS011;9402;51.460;7.276;2023-01-19T11:53:24;57.42;;;30.35;;
18544;SDS011;9402;51.460;7.276;2023-01-19T11:55:31;48.65;;;30.20;;
18544;SDS011;9402;51.460;7.276;2023-01-19T11:57:37;54.25;;;30.98;;
18544;SDS011;9402;51.460;7.276;2023-01-19T11:59:42;47.60;;;28.60;;
18544;SDS011;9402;51.460;7.276;2023-01-19T12:01:45;60.60;;;30.95;;
18544;SDS011;9402;51.460;7.276;2023-01-19T12:03:51;50.67;;;28.85;;
18544;SDS011;9402;51.460;7.276;2023-01-19T12:05:57;51.08;;;29.50;;
18544;SDS011;9402;51.460;7.276;2023-01-19T12:08:04;61.88;;;30.55;;
18544;SDS011;9402;51.460;7.276;2023-01-19T12:10:13;48.95;;;28.42;;
18544;SDS011;9402;51.460;7.276;2023-01-19T12:12:23;44.58;;;28.15;;
18544;SDS011;9402;51.460;7.276;2023-01-19T12:14:30;46.45;;;29.10;;
18544;SDS011;9402;51.460;7.276;2023-01-19T12:16:40;49.47;;;27.88;;
18544;SDS011;9402;51.460;7.276;2023-01-19T12:18:45;59.55;;;28.98;;
18544;SDS011;9402;51.460;7.276;2023-01-19T12:20:50;49.33;;;29.67;;
18544;SDS011;9402;51.460;7.276;2023-01-19T12:22:56;46.10;;;29.60;;
18544;SDS011;9402;51.460;7.276;2023-01-19T12:25:12;60.72;;;29.88;;
18544;SDS011;9402;51.460;7.276;2023-01-19T12:27:20;58.97;;;29.95;;
18544;SDS011;9402;51.460;7.276;2023-01-19T12:29:29;56.65;;;31.70;;
18544;SDS011;9402;51.460;7.276;2023-01-19T12:31:33;49.55;;;29.65;;